sensor_id;sensor_type;location;lat;lon;timestamp;P1;durP1;ratioP1;P2;durP2;ratioP2
76379;SDS011;65201;21.060;105.826;2022-12-18T00:01:33;21.07;;;9.67;;
76379;SDS011;65201;21.060;105.826;2022-12-18T00:04:00;20.60;;;9.20;;
76379;SDS011;65201;21.060;105.826;2022-12-18T00:06:27;21.08;;;9.32;;
76379;SDS011;65201;21.060;105.826;2022-12-18T00:08:54;16.92;;;9.73;;
76379;SDS011;65201;21.060;105.826;2022-12-18T00:11:21;20.58;;;9.27;;
76379;SDS011;65201;21.060;105.826;2022-12-18T00:13:48;21.43;;;9.50;;
76379;SDS011;65201;21.060;105.826;2022-12-18T00:16:18;21.35;;;9.63;;
76379;SDS011;65201;21.060;105.826;2022-12-18T00:18:48;21.90;;;10.02;;
76379;SDS011;65201;21.060;105.826;2022-12-18T00:21:15;21.02;;;9.23;;
76379;SDS011;65201;21.060;105.826;2022-12-18T00:23:42;18.00;;;9.50;;
76379;SDS011;65201;21.060;105.826;2022-12-18T00:26:12;19.40;;;8.87;;
76379;SDS011;65201;21.060;105.826;2022-12-18T00:28:40;21.73;;;9.45;;
76379;SDS011;65201;21.060;105.826;2022-12-18T00:31:07;20.10;;;9.98;;
76379;SDS011;65201;21.060;105.826;2022-12-18T00:33:34;19.20;;;9.40;;
76379;SDS011;65201;21.060;105.826;2022-12-18T00:36:01;19.17;;;9.52;;
76379;SDS011;65201;21.060;105.826;2022-12-18T00:38:27;20.87;;;9.13;;
76379;SDS011;65201;21.060;105.826;2022-12-18T00:40:54;19.38;;;10.27;;
76379;SDS011;65201;21.060;105.826;2022-12-18T00:43:20;25.83;;;10.10;;
76379;SDS011;65201;21.060;105.826;2022-12-18T00:45:46;20.08;;;9.10;;
76379;SDS011;65201;21.060;105.826;2022-12-18T00:48:12;19.52;;;9.60;;
76379;SDS011;65201;21.060;105.826;2022-12-18T00:50:38;20.70;;;9.60;;
76379;SDS011;65201;21.060;105.826;2022-12-18T00:53:04;18.02;;;9.55;;
76379;SDS011;65201;21.060;105.826;2022-12-18T00:55:31;24.38;;;9.93;;
76379;SDS011;65201;21.060;105.826;2022-12-18T00:57:57;18.77;;;10.13;;
76379;SDS011;65201;21.060;105.826;2022-12-18T01:00:23;24.88;;;10.13;;
76379;SDS011;65201;21.060;105.826;2022-12-18T01:02:50;19.73;;;9.40;;
76379;SDS011;65201;21.060;105.826;2022-12-18T01:05:16;25.80;;;10.25;;
76379;SDS011;65201;21.060;105.826;2022-12-18T01:07:42;18.67;;;10.15;;
76379;SDS011;65201;21.060;105.826;2022-12-18T01:10:10;21.90;;;10.45;;
76379;SDS011;65201;21.060;105.826;2022-12-18T01:12:37;20.73;;;10.00;;
76379;SDS011;65201;21.060;105.826;2022-12-18T01:15:04;26.63;;;10.40;;
76379;SDS011;65201;21.060;105.826;2022-12-18T01:17:30;23.00;;;10.13;;
76379;SDS011;65201;21.060;105.826;2022-12-18T01:19:57;23.55;;;10.05;;
76379;SDS011;65201;21.060;105.826;2022-12-18T01:22:23;21.60;;;9.88;;
76379;SDS011;65201;21.060;105.826;2022-12-18T01:24:49;18.67;;;9.85;;
76379;SDS011;65201;21.060;105.826;2022-12-18T01:27:15;21.23;;;10.13;;
76379;SDS011;65201;21.060;105.826;2022-12-18T01:29:41;22.42;;;10.00;;
76379;SDS011;65201;21.060;105.826;2022-12-18T01:32:07;21.00;;;10.27;;
76379;SDS011;65201;21.060;105.826;2022-12-18T01:34:35;22.20;;;10.40;;
76379;SDS011;65201;21.060;105.826;2022-12-18T01:37:02;18.42;;;9.60;;
76379;SDS011;65201;21.060;105.826;2022-12-18T01:39:28;24.93;;;10.30;;
76379;SDS011;65201;21.060;105.826;2022-12-18T01:41:54;22.02;;;11.02;;
76379;SDS011;65201;21.060;105.826;2022-12-18T01:49:46;22.52;;;10.82;;
76379;SDS011;65201;21.060;105.826;2022-12-18T01:52:12;25.33;;;10.43;;
76379;SDS011;65201;21.060;105.826;2022-12-18T01:54:39;22.10;;;10.55;;
76379;SDS011;65201;21.060;105.826;2022-12-18T01:57:05;19.23;;;10.52;;
76379;SDS011;65201;21.060;105.826;2022-12-18T01:59:31;20.35;;;10.68;;
76379;SDS011;65201;21.060;105.826;2022-12-18T02:01:58;17.55;;;10.18;;
76379;SDS011;65201;21.060;105.826;2022-12-18T02:04:26;22.17;;;10.80;;
76379;SDS011;65201;21.060;105.826;2022-12-18T02:06:56;22.52;;;10.55;;
76379;SDS011;65201;21.060;105.826;2022-12-18T02:09:26;20.75;;;10.65;;
76379;SDS011;65201;21.060;105.826;2022-12-18T02:17:10;21.07;;;10.23;;
76379;SDS011;65201;21.060;105.826;2022-12-18T02:27:05;20.80;;;10.65;;
76379;SDS011;65201;21.060;105.826;2022-12-18T02:29:37;18.07;;;10.47;;
76379;SDS011;65201;21.060;105.826;2022-12-18T02:32:06;22.67;;;10.20;;
76379;SDS011;65201;21.060;105.826;2022-12-18T02:34:34;17.25;;;10.82;;
76379;SDS011;65201;21.060;105.826;2022-12-18T02:37:02;21.48;;;10.80;;
76379;SDS011;65201;21.060;105.826;2022-12-18T02:39:29;23.65;;;10.68;;
76379;SDS011;65201;21.060;105.826;2022-12-18T02:41:56;18.80;;;10.10;;
76379;SDS011;65201;21.060;105.826;2022-12-18T02:44:23;23.30;;;10.07;;
76379;SDS011;65201;21.060;105.826;2022-12-18T02:46:50;21.50;;;11.00;;
76379;SDS011;65201;21.060;105.826;2022-12-18T02:55:07;20.10;;;10.07;;
76379;SDS011;65201;21.060;105.826;2022-12-18T03:00:20;25.15;;;10.38;;
76379;SDS011;65201;21.060;105.826;2022-12-18T03:02:53;20.60;;;10.43;;
76379;SDS011;65201;21.060;105.826;2022-12-18T03:05:40;22.80;;;9.98;;
76379;SDS011;65201;21.060;105.826;2022-12-18T03:08:08;19.00;;;10.77;;
76379;SDS011;65201;21.060;105.826;2022-12-18T03:10:38;22.13;;;10.70;;
76379;SDS011;65201;21.060;105.826;2022-12-18T03:13:07;21.52;;;10.35;;
76379;SDS011;65201;21.060;105.826;2022-12-18T03:15:38;21.23;;;10.82;;
76379;SDS011;65201;21.060;105.826;2022-12-18T03:18:09;21.40;;;10.88;;
76379;SDS011;65201;21.060;105.826;2022-12-18T03:20:36;18.90;;;10.63;;
76379;SDS011;65201;21.060;105.826;2022-12-18T03:23:06;19.40;;;10.57;;
76379;SDS011;65201;21.060;105.826;2022-12-18T03:25:34;19.63;;;10.38;;
76379;SDS011;65201;21.060;105.826;2022-12-18T03:28:00;19.80;;;10.13;;
76379;SDS011;65201;21.060;105.826;2022-12-18T03:30:28;18.80;;;10.27;;
76379;SDS011;65201;21.060;105.826;2022-12-18T03:33:08;20.40;;;10.73;;
76379;SDS011;65201;21.060;105.826;2022-12-18T03:35:39;19.60;;;10.98;;
76379;SDS011;65201;21.060;105.826;2022-12-18T03:38:08;19.45;;;10.10;;
76379;SDS011;65201;21.060;105.826;2022-12-18T03:40:37;21.55;;;10.05;;
76379;SDS011;65201;21.060;105.826;2022-12-18T03:43:08;18.83;;;10.23;;
76379;SDS011;65201;21.060;105.826;2022-12-18T03:45:37;17.00;;;10.80;;
76379;SDS011;65201;21.060;105.826;2022-12-18T03:48:08;24.65;;;10.50;;
76379;SDS011;65201;21.060;105.826;2022-12-18T03:50:56;19.38;;;10.02;;
76379;SDS011;65201;21.060;105.826;2022-12-18T03:55:47;19.35;;;10.55;;
76379;SDS011;65201;21.060;105.826;2022-12-18T03:58:14;19.30;;;10.40;;
76379;SDS011;65201;21.060;105.826;2022-12-18T04:00:42;17.95;;;10.48;;
76379;SDS011;65201;21.060;105.826;2022-12-18T04:03:09;18.58;;;10.57;;
76379;SDS011;65201;21.060;105.826;2022-12-18T04:05:36;22.75;;;10.77;;
76379;SDS011;65201;21.060;105.826;2022-12-18T04:08:03;24.00;;;10.70;;
76379;SDS011;65201;21.060;105.826;2022-12-18T04:10:30;24.63;;;11.23;;
76379;SDS011;65201;21.060;105.826;2022-12-18T04:12:56;22.60;;;10.88;;
76379;SDS011;65201;21.060;105.826;2022-12-18T04:15:23;18.55;;;10.75;;
76379;SDS011;65201;21.060;105.826;2022-12-18T04:17:50;23.02;;;10.63;;
76379;SDS011;65201;21.060;105.826;2022-12-18T04:20:16;22.15;;;10.70;;
76379;SDS011;65201;21.060;105.826;2022-12-18T04:22:42;18.53;;;10.50;;
76379;SDS011;65201;21.060;105.826;2022-12-18T04:25:08;19.13;;;10.13;;
76379;SDS011;65201;21.060;105.826;2022-12-18T04:27:37;22.38;;;10.35;;
76379;SDS011;65201;21.060;105.826;2022-12-18T04:30:04;18.77;;;10.20;;
76379;SDS011;65201;21.060;105.826;2022-12-18T04:32:32;19.30;;;10.90;;
76379;SDS011;65201;21.060;105.826;2022-12-18T04:34:59;17.50;;;10.53;;
76379;SDS011;65201;21.060;105.826;2022-12-18T04:37:25;18.50;;;10.55;;
76379;SDS011;65201;21.060;105.826;2022-12-18T04:39:51;19.17;;;10.70;;
76379;SDS011;65201;21.060;105.826;2022-12-18T04:42:17;20.05;;;11.18;;
76379;SDS011;65201;21.060;105.826;2022-12-18T04:44:43;18.42;;;10.35;;
76379;SDS011;65201;21.060;105.826;2022-12-18T04:47:10;18.33;;;10.37;;
76379;SDS011;65201;21.060;105.826;2022-12-18T04:49:36;19.08;;;10.55;;
76379;SDS011;65201;21.060;105.826;2022-12-18T04:52:02;18.13;;;10.45;;
76379;SDS011;65201;21.060;105.826;2022-12-18T04:54:28;23.10;;;10.80;;
76379;SDS011;65201;21.060;105.826;2022-12-18T04:56:54;20.52;;;11.38;;
76379;SDS011;65201;21.060;105.826;2022-12-18T04:59:20;23.20;;;10.87;;
76379;SDS011;65201;21.060;105.826;2022-12-18T05:01:46;23.67;;;11.25;;
76379;SDS011;65201;21.060;105.826;2022-12-18T05:04:12;17.73;;;10.63;;
76379;SDS011;65201;21.060;105.826;2022-12-18T05:06:38;20.73;;;11.10;;
76379;SDS011;65201;21.060;105.826;2022-12-18T05:09:04;17.45;;;10.52;;
76379;SDS011;65201;21.060;105.826;2022-12-18T05:11:30;19.40;;;11.03;;
76379;SDS011;65201;21.060;105.826;2022-12-18T05:13:56;16.67;;;10.13;;
76379;SDS011;65201;21.060;105.826;2022-12-18T05:16:22;23.30;;;11.35;;
76379;SDS011;65201;21.060;105.826;2022-12-18T05:18:48;20.33;;;11.95;;
76379;SDS011;65201;21.060;105.826;2022-12-18T05:21:15;17.70;;;10.90;;
76379;SDS011;65201;21.060;105.826;2022-12-18T05:23:41;19.13;;;11.17;;
76379;SDS011;65201;21.060;105.826;2022-12-18T05:26:07;24.00;;;11.27;;
76379;SDS011;65201;21.060;105.826;2022-12-18T05:28:34;18.83;;;10.90;;
76379;SDS011;65201;21.060;105.826;2022-12-18T05:31:03;20.33;;;10.82;;
76379;SDS011;65201;21.060;105.826;2022-12-18T05:33:30;19.77;;;10.85;;
76379;SDS011;65201;21.060;105.826;2022-12-18T05:35:58;18.77;;;10.73;;
76379;SDS011;65201;21.060;105.826;2022-12-18T05:38:25;25.13;;;10.70;;
76379;SDS011;65201;21.060;105.826;2022-12-18T05:40:51;20.95;;;10.95;;
76379;SDS011;65201;21.060;105.826;2022-12-18T05:43:18;17.77;;;10.82;;
76379;SDS011;65201;21.060;105.826;2022-12-18T05:45:44;20.67;;;12.02;;
76379;SDS011;65201;21.060;105.826;2022-12-18T05:48:11;19.03;;;11.47;;
76379;SDS011;65201;21.060;105.826;2022-12-18T05:50:38;20.83;;;11.48;;
76379;SDS011;65201;21.060;105.826;2022-12-18T05:53:04;27.10;;;11.35;;
76379;SDS011;65201;21.060;105.826;2022-12-18T05:55:38;19.25;;;10.93;;
76379;SDS011;65201;21.060;105.826;2022-12-18T05:58:05;19.17;;;11.15;;
76379;SDS011;65201;21.060;105.826;2022-12-18T06:00:32;17.90;;;10.23;;
76379;SDS011;65201;21.060;105.826;2022-12-18T06:02:58;20.10;;;10.60;;
76379;SDS011;65201;21.060;105.826;2022-12-18T06:05:25;19.27;;;11.20;;
76379;SDS011;65201;21.060;105.826;2022-12-18T06:07:51;18.35;;;10.50;;
76379;SDS011;65201;21.060;105.826;2022-12-18T06:10:17;17.90;;;10.70;;
76379;SDS011;65201;21.060;105.826;2022-12-18T06:12:43;18.67;;;11.20;;
76379;SDS011;65201;21.060;105.826;2022-12-18T06:15:10;22.95;;;11.82;;
76379;SDS011;65201;21.060;105.826;2022-12-18T06:17:36;17.90;;;10.63;;
76379;SDS011;65201;21.060;105.826;2022-12-18T06:20:03;18.80;;;10.88;;
76379;SDS011;65201;21.060;105.826;2022-12-18T06:22:31;19.38;;;11.02;;
76379;SDS011;65201;21.060;105.826;2022-12-18T06:24:58;18.57;;;10.97;;
76379;SDS011;65201;21.060;105.826;2022-12-18T06:27:24;18.83;;;11.00;;
76379;SDS011;65201;21.060;105.826;2022-12-18T06:29:51;19.02;;;11.63;;
76379;SDS011;65201;21.060;105.826;2022-12-18T06:32:17;18.70;;;10.80;;
76379;SDS011;65201;21.060;105.826;2022-12-18T06:34:43;18.73;;;10.57;;
76379;SDS011;65201;21.060;105.826;2022-12-18T06:37:09;20.63;;;11.23;;
76379;SDS011;65201;21.060;105.826;2022-12-18T06:39:35;17.42;;;10.75;;
76379;SDS011;65201;21.060;105.826;2022-12-18T06:42:01;21.73;;;11.38;;
76379;SDS011;65201;21.060;105.826;2022-12-18T06:44:28;23.40;;;11.13;;
76379;SDS011;65201;21.060;105.826;2022-12-18T06:46:54;21.85;;;11.38;;
76379;SDS011;65201;21.060;105.826;2022-12-18T06:49:23;20.07;;;11.00;;
76379;SDS011;65201;21.060;105.826;2022-12-18T06:51:49;23.38;;;11.85;;
76379;SDS011;65201;21.060;105.826;2022-12-18T06:54:16;21.00;;;10.98;;
76379;SDS011;65201;21.060;105.826;2022-12-18T06:56:42;22.10;;;11.50;;
76379;SDS011;65201;21.060;105.826;2022-12-18T06:59:08;17.23;;;10.85;;
76379;SDS011;65201;21.060;105.826;2022-12-18T07:01:34;18.33;;;10.37;;
76379;SDS011;65201;21.060;105.826;2022-12-18T07:04:00;17.25;;;11.30;;
76379;SDS011;65201;21.060;105.826;2022-12-18T07:06:29;19.00;;;11.05;;
76379;SDS011;65201;21.060;105.826;2022-12-18T07:08:55;18.70;;;10.95;;
76379;SDS011;65201;21.060;105.826;2022-12-18T07:11:21;22.25;;;10.80;;
76379;SDS011;65201;21.060;105.826;2022-12-18T07:13:47;17.33;;;10.67;;
76379;SDS011;65201;21.060;105.826;2022-12-18T07:16:15;35.85;;;10.93;;
76379;SDS011;65201;21.060;105.826;2022-12-18T07:18:41;17.17;;;11.13;;
76379;SDS011;65201;21.060;105.826;2022-12-18T07:21:08;23.02;;;10.57;;
76379;SDS011;65201;21.060;105.826;2022-12-18T07:23:35;18.15;;;10.95;;
76379;SDS011;65201;21.060;105.826;2022-12-18T07:26:02;19.63;;;10.70;;
76379;SDS011;65201;21.060;105.826;2022-12-18T07:28:29;21.35;;;11.07;;
76379;SDS011;65201;21.060;105.826;2022-12-18T07:30:55;19.98;;;11.00;;
76379;SDS011;65201;21.060;105.826;2022-12-18T07:33:21;15.98;;;10.18;;
76379;SDS011;65201;21.060;105.826;2022-12-18T07:35:47;19.85;;;10.93;;
76379;SDS011;65201;21.060;105.826;2022-12-18T07:38:13;17.40;;;11.07;;
76379;SDS011;65201;21.060;105.826;2022-12-18T07:40:39;17.27;;;10.60;;
76379;SDS011;65201;21.060;105.826;2022-12-18T07:43:07;18.55;;;11.38;;
76379;SDS011;65201;21.060;105.826;2022-12-18T07:45:33;16.80;;;10.40;;
76379;SDS011;65201;21.060;105.826;2022-12-18T07:48:00;19.42;;;10.88;;
76379;SDS011;65201;21.060;105.826;2022-12-18T07:50:26;18.40;;;11.10;;
76379;SDS011;65201;21.060;105.826;2022-12-18T07:52:52;15.57;;;10.65;;
76379;SDS011;65201;21.060;105.826;2022-12-18T07:55:18;18.77;;;10.80;;
76379;SDS011;65201;21.060;105.826;2022-12-18T07:57:44;20.58;;;10.68;;
76379;SDS011;65201;21.060;105.826;2022-12-18T08:00:10;17.75;;;10.98;;
76379;SDS011;65201;21.060;105.826;2022-12-18T08:02:37;23.37;;;10.67;;
76379;SDS011;65201;21.060;105.826;2022-12-18T08:05:03;19.02;;;11.20;;
76379;SDS011;65201;21.060;105.826;2022-12-18T08:07:29;21.20;;;10.85;;
76379;SDS011;65201;21.060;105.826;2022-12-18T08:09:56;21.67;;;11.80;;
76379;SDS011;65201;21.060;105.826;2022-12-18T08:12:22;18.88;;;11.27;;
76379;SDS011;65201;21.060;105.826;2022-12-18T08:14:48;17.70;;;11.17;;
76379;SDS011;65201;21.060;105.826;2022-12-18T08:17:14;16.35;;;10.82;;
76379;SDS011;65201;21.060;105.826;2022-12-18T08:19:40;19.10;;;10.85;;
76379;SDS011;65201;21.060;105.826;2022-12-18T08:22:06;17.85;;;11.10;;
76379;SDS011;65201;21.060;105.826;2022-12-18T08:24:32;18.80;;;11.65;;
76379;SDS011;65201;21.060;105.826;2022-12-18T08:26:58;17.90;;;11.10;;
76379;SDS011;65201;21.060;105.826;2022-12-18T08:29:25;19.70;;;11.10;;
76379;SDS011;65201;21.060;105.826;2022-12-18T08:31:51;19.77;;;11.68;;
76379;SDS011;65201;21.060;105.826;2022-12-18T08:34:17;18.73;;;11.20;;
76379;SDS011;65201;21.060;105.826;2022-12-18T08:36:43;18.15;;;11.02;;
76379;SDS011;65201;21.060;105.826;2022-12-18T08:39:09;18.43;;;11.17;;
76379;SDS011;65201;21.060;105.826;2022-12-18T08:41:35;19.27;;;11.43;;
76379;SDS011;65201;21.060;105.826;2022-12-18T08:44:01;19.80;;;10.93;;
76379;SDS011;65201;21.060;105.826;2022-12-18T08:46:45;18.58;;;11.20;;
76379;SDS011;65201;21.060;105.826;2022-12-18T08:49:11;19.80;;;11.50;;
76379;SDS011;65201;21.060;105.826;2022-12-18T08:51:38;19.50;;;11.47;;
76379;SDS011;65201;21.060;105.826;2022-12-18T08:54:04;16.88;;;10.90;;
76379;SDS011;65201;21.060;105.826;2022-12-18T08:56:30;18.27;;;11.27;;
76379;SDS011;65201;21.060;105.826;2022-12-18T08:58:57;20.17;;;11.15;;
76379;SDS011;65201;21.060;105.826;2022-12-18T09:01:23;20.33;;;10.95;;
76379;SDS011;65201;21.060;105.826;2022-12-18T09:03:50;17.83;;;11.80;;
76379;SDS011;65201;21.060;105.826;2022-12-18T09:06:17;17.90;;;10.60;;
76379;SDS011;65201;21.060;105.826;2022-12-18T09:08:43;19.95;;;11.18;;
76379;SDS011;65201;21.060;105.826;2022-12-18T09:11:14;18.08;;;11.93;;
76379;SDS011;65201;21.060;105.826;2022-12-18T09:13:40;19.83;;;11.13;;
76379;SDS011;65201;21.060;105.826;2022-12-18T09:16:06;18.37;;;11.20;;
76379;SDS011;65201;21.060;105.826;2022-12-18T09:18:33;18.35;;;10.85;;
76379;SDS011;65201;21.060;105.826;2022-12-18T09:20:59;19.15;;;11.80;;
76379;SDS011;65201;21.060;105.826;2022-12-18T09:23:25;17.63;;;11.45;;
76379;SDS011;65201;21.060;105.826;2022-12-18T09:25:51;15.18;;;11.05;;
76379;SDS011;65201;21.060;105.826;2022-12-18T09:28:17;21.03;;;11.27;;
76379;SDS011;65201;21.060;105.826;2022-12-18T09:30:45;21.27;;;11.85;;
76379;SDS011;65201;21.060;105.826;2022-12-18T09:33:11;21.83;;;11.88;;
76379;SDS011;65201;21.060;105.826;2022-12-18T09:35:38;20.70;;;11.48;;
76379;SDS011;65201;21.060;105.826;2022-12-18T09:38:04;20.70;;;11.57;;
76379;SDS011;65201;21.060;105.826;2022-12-18T09:40:34;20.80;;;12.23;;
76379;SDS011;65201;21.060;105.826;2022-12-18T09:43:02;18.02;;;11.93;;
76379;SDS011;65201;21.060;105.826;2022-12-18T09:45:30;22.42;;;12.02;;
76379;SDS011;65201;21.060;105.826;2022-12-18T09:48:01;18.10;;;12.05;;
76379;SDS011;65201;21.060;105.826;2022-12-18T09:50:32;21.05;;;13.40;;
76379;SDS011;65201;21.060;105.826;2022-12-18T09:52:59;21.20;;;12.57;;
76379;SDS011;65201;21.060;105.826;2022-12-18T09:55:30;23.30;;;13.40;;
76379;SDS011;65201;21.060;105.826;2022-12-18T09:58:00;20.88;;;12.65;;
76379;SDS011;65201;21.060;105.826;2022-12-18T10:00:28;21.25;;;12.90;;
76379;SDS011;65201;21.060;105.826;2022-12-18T10:03:08;17.98;;;11.93;;
76379;SDS011;65201;21.060;105.826;2022-12-18T10:05:37;22.60;;;12.03;;
76379;SDS011;65201;21.060;105.826;2022-12-18T10:08:13;21.63;;;12.40;;
76379;SDS011;65201;21.060;105.826;2022-12-18T10:10:55;27.52;;;13.60;;
76379;SDS011;65201;21.060;105.826;2022-12-18T10:16:37;19.05;;;12.32;;
76379;SDS011;65201;21.060;105.826;2022-12-18T10:21:13;22.55;;;13.38;;
76379;SDS011;65201;21.060;105.826;2022-12-18T10:23:54;22.85;;;13.02;;
76379;SDS011;65201;21.060;105.826;2022-12-18T10:26:22;21.08;;;13.25;;
76379;SDS011;65201;21.060;105.826;2022-12-18T10:28:49;20.25;;;13.95;;
76379;SDS011;65201;21.060;105.826;2022-12-18T10:31:19;27.23;;;14.13;;
76379;SDS011;65201;21.060;105.826;2022-12-18T10:33:45;25.02;;;13.75;;
76379;SDS011;65201;21.060;105.826;2022-12-18T10:36:11;25.10;;;14.38;;
76379;SDS011;65201;21.060;105.826;2022-12-18T10:38:38;21.15;;;13.85;;
76379;SDS011;65201;21.060;105.826;2022-12-18T10:41:05;26.08;;;14.88;;
76379;SDS011;65201;21.060;105.826;2022-12-18T10:43:37;28.00;;;14.60;;
76379;SDS011;65201;21.060;105.826;2022-12-18T10:51:05;26.83;;;14.52;;
76379;SDS011;65201;21.060;105.826;2022-12-18T10:53:31;25.98;;;15.50;;
76379;SDS011;65201;21.060;105.826;2022-12-18T10:55:59;25.57;;;15.63;;
76379;SDS011;65201;21.060;105.826;2022-12-18T10:58:30;23.23;;;15.38;;
76379;SDS011;65201;21.060;105.826;2022-12-18T11:01:05;26.45;;;15.57;;
76379;SDS011;65201;21.060;105.826;2022-12-18T11:03:36;27.75;;;16.58;;
76379;SDS011;65201;21.060;105.826;2022-12-18T11:08:29;24.93;;;15.73;;
76379;SDS011;65201;21.060;105.826;2022-12-18T11:10:55;27.80;;;16.77;;
76379;SDS011;65201;21.060;105.826;2022-12-18T11:13:22;32.33;;;17.30;;
76379;SDS011;65201;21.060;105.826;2022-12-18T11:15:49;30.23;;;18.48;;
76379;SDS011;65201;21.060;105.826;2022-12-18T11:18:20;32.13;;;16.77;;
76379;SDS011;65201;21.060;105.826;2022-12-18T11:20:51;30.70;;;18.43;;
76379;SDS011;65201;21.060;105.826;2022-12-18T11:23:18;32.15;;;17.95;;
76379;SDS011;65201;21.060;105.826;2022-12-18T11:25:56;33.08;;;18.45;;
76379;SDS011;65201;21.060;105.826;2022-12-18T11:33:36;33.73;;;18.30;;
76379;SDS011;65201;21.060;105.826;2022-12-18T11:36:03;30.75;;;18.73;;
76379;SDS011;65201;21.060;105.826;2022-12-18T11:38:39;33.53;;;19.45;;
76379;SDS011;65201;21.060;105.826;2022-12-18T11:41:11;38.13;;;20.02;;
76379;SDS011;65201;21.060;105.826;2022-12-18T11:43:42;29.35;;;18.77;;
76379;SDS011;65201;21.060;105.826;2022-12-18T11:48:58;32.72;;;20.23;;
76379;SDS011;65201;21.060;105.826;2022-12-18T11:51:32;42.85;;;20.65;;
76379;SDS011;65201;21.060;105.826;2022-12-18T11:54:00;34.65;;;20.70;;
76379;SDS011;65201;21.060;105.826;2022-12-18T12:09:17;44.20;;;23.77;;
76379;SDS011;65201;21.060;105.826;2022-12-18T12:14:23;44.40;;;24.65;;
76379;SDS011;65201;21.060;105.826;2022-12-18T12:19:33;43.53;;;24.88;;
76379;SDS011;65201;21.060;105.826;2022-12-18T12:24:30;40.60;;;25.97;;
76379;SDS011;65201;21.060;105.826;2022-12-18T12:29:42;43.03;;;25.48;;
76379;SDS011;65201;21.060;105.826;2022-12-18T12:32:15;42.03;;;25.73;;
76379;SDS011;65201;21.060;105.826;2022-12-18T12:39:42;44.40;;;25.95;;
76379;SDS011;65201;21.060;105.826;2022-12-18T12:42:16;48.10;;;26.05;;
76379;SDS011;65201;21.060;105.826;2022-12-18T12:45:03;52.03;;;28.00;;
76379;SDS011;65201;21.060;105.826;2022-12-18T12:47:32;48.90;;;27.70;;
76379;SDS011;65201;21.060;105.826;2022-12-18T12:49:59;49.67;;;26.93;;
76379;SDS011;65201;21.060;105.826;2022-12-18T12:52:32;45.65;;;27.67;;
76379;SDS011;65201;21.060;105.826;2022-12-18T12:54:59;51.60;;;28.50;;
76379;SDS011;65201;21.060;105.826;2022-12-18T12:57:33;48.63;;;29.10;;
76379;SDS011;65201;21.060;105.826;2022-12-18T13:00:11;52.20;;;30.13;;
76379;SDS011;65201;21.060;105.826;2022-12-18T13:02:52;48.27;;;27.67;;
76379;SDS011;65201;21.060;105.826;2022-12-18T13:07:47;51.00;;;29.45;;
76379;SDS011;65201;21.060;105.826;2022-12-18T13:12:52;56.67;;;31.00;;
76379;SDS011;65201;21.060;105.826;2022-12-18T13:15:25;48.30;;;29.47;;
76379;SDS011;65201;21.060;105.826;2022-12-18T13:20:40;56.08;;;29.85;;
76379;SDS011;65201;21.060;105.826;2022-12-18T13:26:50;50.53;;;31.20;;
76379;SDS011;65201;21.060;105.826;2022-12-18T13:31:15;53.75;;;31.17;;
76379;SDS011;65201;21.060;105.826;2022-12-18T13:34:19;60.88;;;33.35;;
76379;SDS011;65201;21.060;105.826;2022-12-18T13:36:46;56.38;;;34.67;;
76379;SDS011;65201;21.060;105.826;2022-12-18T13:42:37;61.30;;;33.17;;
76379;SDS011;65201;21.060;105.826;2022-12-18T13:44:59;56.70;;;33.60;;
76379;SDS011;65201;21.060;105.826;2022-12-18T13:47:37;59.65;;;34.17;;
76379;SDS011;65201;21.060;105.826;2022-12-18T13:50:25;59.13;;;34.53;;
76379;SDS011;65201;21.060;105.826;2022-12-18T13:52:51;61.88;;;34.63;;
76379;SDS011;65201;21.060;105.826;2022-12-18T13:55:22;59.00;;;35.53;;
76379;SDS011;65201;21.060;105.826;2022-12-18T13:58:04;56.72;;;35.15;;
76379;SDS011;65201;21.060;105.826;2022-12-18T14:00:32;58.25;;;34.35;;
76379;SDS011;65201;21.060;105.826;2022-12-18T14:03:00;58.42;;;34.45;;
76379;SDS011;65201;21.060;105.826;2022-12-18T14:05:29;62.55;;;34.40;;
76379;SDS011;65201;21.060;105.826;2022-12-18T14:07:59;62.87;;;35.60;;
76379;SDS011;65201;21.060;105.826;2022-12-18T14:10:28;66.75;;;36.15;;
76379;SDS011;65201;21.060;105.826;2022-12-18T14:13:04;60.78;;;33.95;;
76379;SDS011;65201;21.060;105.826;2022-12-18T14:15:36;60.80;;;35.85;;
76379;SDS011;65201;21.060;105.826;2022-12-18T14:20:41;61.73;;;36.23;;
76379;SDS011;65201;21.060;105.826;2022-12-18T14:25:59;64.45;;;36.00;;
76379;SDS011;65201;21.060;105.826;2022-12-18T14:28:28;65.50;;;35.28;;
76379;SDS011;65201;21.060;105.826;2022-12-18T14:30:54;64.30;;;35.28;;
76379;SDS011;65201;21.060;105.826;2022-12-18T14:33:24;63.07;;;35.60;;
76379;SDS011;65201;21.060;105.826;2022-12-18T14:36:04;63.60;;;36.35;;
76379;SDS011;65201;21.060;105.826;2022-12-18T14:38:37;63.50;;;36.53;;
76379;SDS011;65201;21.060;105.826;2022-12-18T14:41:14;63.10;;;37.75;;
76379;SDS011;65201;21.060;105.826;2022-12-18T14:43:42;64.75;;;37.63;;
76379;SDS011;65201;21.060;105.826;2022-12-18T14:48:52;62.33;;;37.58;;
76379;SDS011;65201;21.060;105.826;2022-12-18T14:51:23;71.38;;;38.28;;
76379;SDS011;65201;21.060;105.826;2022-12-18T14:58:55;69.07;;;38.33;;
76379;SDS011;65201;21.060;105.826;2022-12-18T15:01:39;68.10;;;37.63;;
76379;SDS011;65201;21.060;105.826;2022-12-18T15:04:24;68.65;;;38.80;;
76379;SDS011;65201;21.060;105.826;2022-12-18T15:07:39;69.10;;;38.35;;
76379;SDS011;65201;21.060;105.826;2022-12-18T15:09:39;68.38;;;38.42;;
76379;SDS011;65201;21.060;105.826;2022-12-18T15:12:15;66.13;;;39.13;;
76379;SDS011;65201;21.060;105.826;2022-12-18T15:14:43;70.57;;;37.92;;
76379;SDS011;65201;21.060;105.826;2022-12-18T15:17:19;72.15;;;40.17;;
76379;SDS011;65201;21.060;105.826;2022-12-18T15:19:47;69.28;;;39.38;;
76379;SDS011;65201;21.060;105.826;2022-12-18T15:22:18;70.10;;;39.53;;
76379;SDS011;65201;21.060;105.826;2022-12-18T15:24:45;63.97;;;39.07;;
76379;SDS011;65201;21.060;105.826;2022-12-18T15:27:21;67.97;;;39.40;;
76379;SDS011;65201;21.060;105.826;2022-12-18T15:30:11;68.75;;;38.72;;
76379;SDS011;65201;21.060;105.826;2022-12-18T15:32:41;69.53;;;38.13;;
76379;SDS011;65201;21.060;105.826;2022-12-18T15:37:37;64.80;;;39.83;;
76379;SDS011;65201;21.060;105.826;2022-12-18T15:40:03;74.93;;;40.15;;
76379;SDS011;65201;21.060;105.826;2022-12-18T15:42:29;72.03;;;40.20;;
76379;SDS011;65201;21.060;105.826;2022-12-18T15:45:13;68.55;;;39.50;;
76379;SDS011;65201;21.060;105.826;2022-12-18T15:47:39;68.13;;;40.50;;
76379;SDS011;65201;21.060;105.826;2022-12-18T15:50:07;69.10;;;39.77;;
76379;SDS011;65201;21.060;105.826;2022-12-18T15:52:35;71.97;;;40.60;;
76379;SDS011;65201;21.060;105.826;2022-12-18T15:55:05;67.72;;;39.88;;
76379;SDS011;65201;21.060;105.826;2022-12-18T15:57:49;66.55;;;38.90;;